createdAt,value
2019-06-26T00:00:18.197Z,5.65
2019-06-26T00:02:46.342Z,4.25
2019-06-26T00:05:13.632Z,13.48
2019-06-26T00:07:40.546Z,9.05
2019-06-26T00:10:08.095Z,5.58
2019-06-26T00:12:35.004Z,2.90
2019-06-26T00:15:04.510Z,3.90
2019-06-26T00:17:31.601Z,8.15
2019-06-26T00:19:58.706Z,6.62
2019-06-26T00:22:25.669Z,2.83
2019-06-26T00:24:52.949Z,4.47
2019-06-26T00:27:20.143Z,6.75
2019-06-26T00:29:47.135Z,7.33
2019-06-26T00:32:13.970Z,5.85
2019-06-26T00:34:40.889Z,4.95
2019-06-26T00:37:08.014Z,2.95
2019-06-26T00:39:34.832Z,10.70
2019-06-26T00:42:01.946Z,4.37
2019-06-26T00:44:29.014Z,5.28
2019-06-26T00:46:56.797Z,5.42
2019-06-26T00:49:23.664Z,7.90
2019-06-26T00:51:50.496Z,4.35
2019-06-26T00:54:17.630Z,5.30
2019-06-26T00:56:44.584Z,4.50
2019-06-26T00:59:11.563Z,10.68
2019-06-26T01:01:38.512Z,4.83
2019-06-26T01:04:10.021Z,8.08
2019-06-26T01:06:43.194Z,6.97
2019-06-26T01:09:14.383Z,7.10
2019-06-26T01:11:44.348Z,11.78
2019-06-26T01:14:11.371Z,5.63
2019-06-26T01:16:38.719Z,12.78
2019-06-26T01:19:05.547Z,6.92
2019-06-26T01:21:32.795Z,15.45
2019-06-26T01:23:59.763Z,18.37
2019-06-26T01:26:27.134Z,9.98
2019-06-26T01:28:54.698Z,14.18
2019-06-26T01:31:21.672Z,14.65
2019-06-26T01:33:48.527Z,14.80
2019-06-26T01:36:15.478Z,14.10
2019-06-26T01:38:42.957Z,15.63
2019-06-26T01:41:09.792Z,12.33
2019-06-26T01:43:36.781Z,14.45
2019-06-26T01:46:03.620Z,12.70
2019-06-26T01:48:30.513Z,13.72
2019-06-26T01:50:57.648Z,19.30
2019-06-26T01:53:24.824Z,11.45
2019-06-26T01:55:51.797Z,10.25
2019-06-26T01:58:18.713Z,11.30
2019-06-26T02:00:45.924Z,11.05
2019-06-26T02:03:12.867Z,8.35
2019-06-26T02:05:39.697Z,9.58
2019-06-26T02:08:06.573Z,11.57
2019-06-26T02:10:33.401Z,12.50
2019-06-26T02:13:00.224Z,15.18
2019-06-26T02:15:28.014Z,18.77
2019-06-26T02:17:54.988Z,20.48
2019-06-26T02:20:21.904Z,16.90
2019-06-26T02:22:49.737Z,18.98
2019-06-26T02:25:17.243Z,19.02
2019-06-26T02:27:44.715Z,19.42
2019-06-26T02:30:12.048Z,17.60
2019-06-26T02:32:38.876Z,19.10
2019-06-26T02:35:09.647Z,25.27
2019-06-26T02:37:35.964Z,23.50
2019-06-26T02:40:08.031Z,20.72
2019-06-26T02:42:35.464Z,25.80
2019-06-26T02:45:04.235Z,19.52
2019-06-26T02:47:31.357Z,31.55
2019-06-26T02:49:58.264Z,22.25
2019-06-26T02:52:25.108Z,21.60
2019-06-26T02:54:52.256Z,19.00
2019-06-26T02:57:19.401Z,24.12
2019-06-26T02:59:46.341Z,20.32
2019-06-26T03:02:13.198Z,22.30
2019-06-26T03:04:40.038Z,25.02
2019-06-26T03:07:06.918Z,24.65
2019-06-26T03:09:33.917Z,20.85
2019-06-26T03:12:00.850Z,24.30
2019-06-26T03:14:27.759Z,27.62
2019-06-26T03:16:54.904Z,25.40
2019-06-26T03:19:21.751Z,29.63
2019-06-26T03:21:48.886Z,32.50
2019-06-26T03:24:15.714Z,23.92
2019-06-26T03:26:42.880Z,20.65
2019-06-26T03:29:09.846Z,25.65
2019-06-26T03:31:36.670Z,23.92
2019-06-26T03:34:03.607Z,26.35
2019-06-26T03:36:30.475Z,30.37
2019-06-26T03:38:57.346Z,23.80
2019-06-26T03:41:24.289Z,25.17
2019-06-26T03:43:51.996Z,18.02
2019-06-26T03:46:18.869Z,18.07
2019-06-26T03:48:45.758Z,25.60
2019-06-26T03:51:14.185Z,31.70
2019-06-26T03:53:41.167Z,24.87
2019-06-26T03:56:08.397Z,19.65
2019-06-26T03:58:35.295Z,20.65
2019-06-26T04:01:02.144Z,21.65
2019-06-26T04:03:29.148Z,25.95
2019-06-26T04:05:56.163Z,28.12
2019-06-26T04:08:23.034Z,21.40
2019-06-26T04:10:50.232Z,30.08
2019-06-26T04:13:17.157Z,28.98
2019-06-26T04:15:45.031Z,13.75
2019-06-26T04:18:11.861Z,19.65
2019-06-26T04:20:39.028Z,29.40
2019-06-26T04:23:05.853Z,21.52
2019-06-26T04:25:32.716Z,23.65
2019-06-26T04:27:59.616Z,22.52
2019-06-26T04:30:27.041Z,22.02
2019-06-26T04:32:53.893Z,18.62
2019-06-26T04:35:21.120Z,27.42
2019-06-26T04:37:48.174Z,26.37
2019-06-26T04:40:15.702Z,23.30
2019-06-26T04:42:43.536Z,24.70
2019-06-26T04:45:11.275Z,26.25
2019-06-26T04:47:38.374Z,28.20
2019-06-26T04:50:07.048Z,32.30
2019-06-26T04:52:34.220Z,24.65
2019-06-26T04:55:01.055Z,19.67
2019-06-26T04:57:28.089Z,28.98
2019-06-26T04:59:54.934Z,19.75
2019-06-26T05:02:21.797Z,20.37
2019-06-26T05:04:48.862Z,22.15
2019-06-26T05:07:15.713Z,31.50
2019-06-26T05:09:43.293Z,23.80
2019-06-26T05:12:10.136Z,29.77
2019-06-26T05:14:36.997Z,20.43
2019-06-26T05:17:04.158Z,18.45
2019-06-26T05:19:31.001Z,28.20
2019-06-26T05:21:57.875Z,28.25
2019-06-26T05:24:25.097Z,22.60
2019-06-26T05:26:52.105Z,21.57
2019-06-26T05:29:18.949Z,21.33
2019-06-26T05:31:45.811Z,31.23
2019-06-26T05:34:12.686Z,28.75
2019-06-26T05:36:40.199Z,23.47
2019-06-26T05:39:07.240Z,24.07
2019-06-26T05:41:34.844Z,28.32
2019-06-26T05:44:03.737Z,29.27
2019-06-26T05:46:31.793Z,21.17
2019-06-26T05:48:59.224Z,25.02
2019-06-26T05:51:26.060Z,31.52
2019-06-26T05:53:52.950Z,20.62
2019-06-26T05:56:20.034Z,25.00
2019-06-26T05:58:46.950Z,20.60
2019-06-26T06:01:13.882Z,27.32
2019-06-26T06:03:40.858Z,24.12
2019-06-26T06:06:07.806Z,36.83
2019-06-26T06:08:34.936Z,25.55
2019-06-26T06:11:01.916Z,30.43
2019-06-26T06:13:29.250Z,29.02
2019-06-26T06:15:56.095Z,19.92
2019-06-26T06:18:23.114Z,31.20
2019-06-26T06:20:50.000Z,26.15
2019-06-26T06:23:16.829Z,22.70
2019-06-26T06:25:43.749Z,30.37
2019-06-26T06:28:10.570Z,23.07
2019-06-26T06:30:37.407Z,27.90
2019-06-26T06:33:04.659Z,33.65
2019-06-26T06:35:31.505Z,22.52
2019-06-26T06:37:58.335Z,26.85
2019-06-26T06:40:26.023Z,31.20
2019-06-26T06:42:52.863Z,24.12
2019-06-26T06:45:20.448Z,22.70
2019-06-26T06:47:47.323Z,23.65
2019-06-26T06:50:14.830Z,24.77
2019-06-26T06:52:42.651Z,23.00
2019-06-26T06:55:10.179Z,23.30
2019-06-26T06:57:37.350Z,23.38
2019-06-26T07:00:07.921Z,19.20
2019-06-26T07:02:35.377Z,25.95
2019-06-26T07:05:05.553Z,59.93
2019-06-26T07:07:32.395Z,35.90
2019-06-26T07:09:59.392Z,21.25
2019-06-26T07:12:26.424Z,26.05
2019-06-26T07:14:53.692Z,22.17
2019-06-26T07:17:21.570Z,22.32
2019-06-26T07:19:48.749Z,20.90
2019-06-26T07:22:15.726Z,19.98
2019-06-26T07:24:43.093Z,29.20
2019-06-26T07:27:10.105Z,22.13
2019-06-26T07:29:36.968Z,24.07
2019-06-26T07:32:04.171Z,23.52
2019-06-26T07:34:31.082Z,20.90
2019-06-26T07:36:57.919Z,29.15
2019-06-26T07:39:25.207Z,27.45
2019-06-26T07:41:52.275Z,33.58
2019-06-26T07:44:19.140Z,25.68
2019-06-26T07:46:46.194Z,30.45
2019-06-26T07:49:13.022Z,30.30
2019-06-26T07:51:40.122Z,21.90
2019-06-26T07:54:07.328Z,24.98
2019-06-26T07:56:34.399Z,23.40
2019-06-26T07:59:01.412Z,21.77
2019-06-26T08:01:29.540Z,16.97
2019-06-26T08:03:56.426Z,23.00
2019-06-26T08:06:23.380Z,20.95
2019-06-26T08:08:50.998Z,23.57
2019-06-26T08:11:18.011Z,26.33
2019-06-26T08:13:45.053Z,27.48
2019-06-26T08:16:12.162Z,26.87
2019-06-26T08:18:38.992Z,22.35
2019-06-26T08:21:12.641Z,15.48
2019-06-26T08:23:35.436Z,26.37
2019-06-26T08:26:02.672Z,17.52
2019-06-26T08:28:29.597Z,19.32
2019-06-26T08:30:56.706Z,19.70
2019-06-26T08:33:23.665Z,21.15
2019-06-26T08:35:50.817Z,18.90
2019-06-26T08:38:17.930Z,18.82
2019-06-26T08:40:45.089Z,14.98
2019-06-26T08:43:11.907Z,17.50
2019-06-26T08:45:38.994Z,12.63
2019-06-26T08:48:17.316Z,15.13
2019-06-26T08:50:34.963Z,11.55
2019-06-26T08:53:02.438Z,14.90
2019-06-26T08:55:29.616Z,18.90
2019-06-26T08:57:56.519Z,16.73
2019-06-26T09:00:23.990Z,17.62
2019-06-26T09:02:50.823Z,18.87
2019-06-26T09:05:18.564Z,17.12
2019-06-26T09:07:45.769Z,15.83
2019-06-26T09:10:13.122Z,15.83
2019-06-26T09:12:41.143Z,15.72
2019-06-26T09:15:08.693Z,18.65
2019-06-26T09:17:35.844Z,17.40
2019-06-26T09:20:04.900Z,16.42
2019-06-26T09:22:31.840Z,10.72
2019-06-26T09:24:58.695Z,14.25
2019-06-26T09:27:25.628Z,21.37
2019-06-26T09:29:53.153Z,19.67
2019-06-26T09:32:20.136Z,16.17
2019-06-26T09:34:47.008Z,17.57
2019-06-26T09:37:13.947Z,22.15
2019-06-26T09:39:41.889Z,16.30
2019-06-26T09:42:08.718Z,11.05
2019-06-26T09:44:35.750Z,18.12
2019-06-26T09:47:02.574Z,25.27
2019-06-26T09:49:29.417Z,16.65
2019-06-26T09:51:56.417Z,17.07
2019-06-26T09:54:23.265Z,19.80
2019-06-26T09:56:50.128Z,17.20
2019-06-26T09:59:17.032Z,16.90
2019-06-26T10:01:44.251Z,10.08
2019-06-26T10:04:11.601Z,10.88
2019-06-26T10:06:38.628Z,17.60
2019-06-26T10:09:07.284Z,14.23
2019-06-26T10:11:34.309Z,20.00
2019-06-26T10:14:01.458Z,18.23
2019-06-26T10:16:28.296Z,9.58
2019-06-26T10:19:08.824Z,9.05
2019-06-26T10:21:23.946Z,13.15
2019-06-26T10:23:50.973Z,10.10
2019-06-26T10:26:18.169Z,15.32
2019-06-26T10:28:45.067Z,14.18
2019-06-26T10:31:12.272Z,15.58
2019-06-26T10:33:40.181Z,12.75
2019-06-26T10:36:07.651Z,14.55
2019-06-26T10:38:34.487Z,12.03
2019-06-26T10:41:01.779Z,9.25
2019-06-26T10:43:28.621Z,8.75
2019-06-26T10:45:55.456Z,9.90
2019-06-26T10:48:23.104Z,9.43
2019-06-26T10:50:57.918Z,10.70
2019-06-26T10:53:18.747Z,19.67
2019-06-26T10:55:45.602Z,13.75
2019-06-26T10:58:12.473Z,11.73
2019-06-26T11:00:40.630Z,11.15
2019-06-26T11:03:07.580Z,11.05
2019-06-26T11:05:34.818Z,15.72
2019-06-26T11:08:01.900Z,16.52
2019-06-26T11:10:29.099Z,17.02
2019-06-26T11:12:56.115Z,10.15
2019-06-26T11:15:24.083Z,13.13
2019-06-26T11:17:51.103Z,8.43
2019-06-26T11:20:18.515Z,13.25
2019-06-26T11:22:45.370Z,12.58
2019-06-26T11:25:12.815Z,21.52
2019-06-26T11:27:41.023Z,10.93
2019-06-26T11:30:10.258Z,8.53
2019-06-26T11:32:37.920Z,14.87
2019-06-26T11:35:06.848Z,13.43
2019-06-26T11:37:33.818Z,11.93
2019-06-26T11:40:00.644Z,10.05
2019-06-26T11:42:28.150Z,15.80
2019-06-26T11:44:55.190Z,15.75
2019-06-26T11:47:22.614Z,19.67
2019-06-26T11:49:59.417Z,9.75
2019-06-26T11:52:18.679Z,11.33
2019-06-26T11:54:58.286Z,12.07
2019-06-26T11:57:14.715Z,13.48
2019-06-26T11:59:41.647Z,15.30
2019-06-26T12:02:08.629Z,9.08
2019-06-26T12:04:35.570Z,14.87
2019-06-26T12:07:03.633Z,12.30
2019-06-26T12:09:30.462Z,16.67
2019-06-26T12:11:57.907Z,15.08
2019-06-26T12:14:24.749Z,13.75
2019-06-26T12:16:51.742Z,13.30
2019-06-26T12:19:22.487Z,16.95
2019-06-26T12:21:48.095Z,22.22
2019-06-26T12:24:15.098Z,16.17
2019-06-26T12:26:42.337Z,15.68
2019-06-26T12:29:09.173Z,11.30
2019-06-26T12:31:36.009Z,14.60
2019-06-26T12:34:03.786Z,14.13
2019-06-26T12:36:30.617Z,8.30
2019-06-26T12:38:57.849Z,9.78
2019-06-26T12:41:24.682Z,15.40
2019-06-26T12:43:51.568Z,13.00
2019-06-26T12:46:18.695Z,14.95
2019-06-26T12:48:45.555Z,13.43
2019-06-26T12:51:12.805Z,13.38
2019-06-26T12:53:39.833Z,14.20
2019-06-26T12:56:07.815Z,15.58
2019-06-26T12:58:34.861Z,17.35
2019-06-26T13:01:01.774Z,9.18
2019-06-26T13:03:28.736Z,13.28
2019-06-26T13:05:55.588Z,16.80
2019-06-26T13:08:22.789Z,11.25
2019-06-26T13:10:50.623Z,13.03
2019-06-26T13:13:18.182Z,12.45
2019-06-26T13:15:45.023Z,19.02
2019-06-26T13:18:12.296Z,15.43
2019-06-26T13:20:52.159Z,19.25
2019-06-26T13:23:09.113Z,13.28
2019-06-26T13:25:35.992Z,26.57
2019-06-26T13:28:03.367Z,17.27
2019-06-26T13:30:53.299Z,10.50
2019-06-26T13:33:20.457Z,10.40
2019-06-26T13:36:00.495Z,19.42
2019-06-26T13:38:27.433Z,10.65
2019-06-26T13:40:54.653Z,12.70
2019-06-26T13:43:22.076Z,11.33
2019-06-26T13:45:49.099Z,13.22
2019-06-26T13:48:15.960Z,14.98
2019-06-26T13:50:42.963Z,10.95
2019-06-26T13:53:09.807Z,15.40
2019-06-26T13:55:36.951Z,16.40
2019-06-26T13:58:04.170Z,19.40
2019-06-26T14:00:31.016Z,12.78
2019-06-26T14:02:58.189Z,13.10
2019-06-26T14:05:25.093Z,10.13
2019-06-26T14:07:51.919Z,13.40
2019-06-26T14:10:19.250Z,11.03
2019-06-26T14:12:46.456Z,9.40
2019-06-26T14:15:14.581Z,15.78
2019-06-26T14:17:41.554Z,10.70
2019-06-26T14:20:09.977Z,12.03
2019-06-26T14:22:37.945Z,13.48
2019-06-26T14:25:07.313Z,11.43
2019-06-26T14:27:34.334Z,16.82
2019-06-26T14:30:01.179Z,11.15
2019-06-26T14:32:28.391Z,67.58
2019-06-26T14:34:55.223Z,12.30
2019-06-26T14:37:22.049Z,12.30
2019-06-26T14:39:48.926Z,15.25
2019-06-26T14:42:15.912Z,8.78
2019-06-26T14:44:42.886Z,12.53
2019-06-26T14:47:09.795Z,14.55
2019-06-26T14:49:38.090Z,9.45
2019-06-26T14:52:05.037Z,28.07
2019-06-26T14:54:32.158Z,18.15
2019-06-26T14:56:59.087Z,11.12
2019-06-26T14:59:25.929Z,9.83
2019-06-26T15:01:52.776Z,11.93
2019-06-26T15:04:20.439Z,15.65
2019-06-26T15:06:47.719Z,13.10
2019-06-26T15:09:14.561Z,11.08
2019-06-26T15:11:41.763Z,16.57
2019-06-26T15:14:09.143Z,7.85
2019-06-26T15:16:36.009Z,15.48
2019-06-26T15:19:03.466Z,15.98
2019-06-26T15:21:30.291Z,10.78
2019-06-26T15:23:57.131Z,18.40
2019-06-26T15:26:24.221Z,10.23
2019-06-26T15:28:51.060Z,14.98
2019-06-26T15:31:17.919Z,12.10
2019-06-26T15:33:44.863Z,10.82
2019-06-26T15:36:11.699Z,10.63
2019-06-26T15:38:39.008Z,12.58
2019-06-26T15:41:05.892Z,22.32
2019-06-26T15:43:32.754Z,12.47
2019-06-26T15:45:59.778Z,21.05
2019-06-26T15:48:26.727Z,8.33
2019-06-26T15:50:53.587Z,12.63
2019-06-26T15:53:20.609Z,16.62
2019-06-26T15:55:47.449Z,12.25
2019-06-26T15:58:14.799Z,13.55
2019-06-26T16:00:41.636Z,13.32
2019-06-26T16:03:08.545Z,8.93
2019-06-26T16:05:35.820Z,11.22
2019-06-26T16:08:02.985Z,17.70
2019-06-26T16:10:30.083Z,18.30
2019-06-26T16:12:57.622Z,12.13
2019-06-26T16:15:24.694Z,13.85
2019-06-26T16:18:10.143Z,8.85
2019-06-26T16:20:37.711Z,24.90
2019-06-26T16:23:04.749Z,12.03
2019-06-26T16:25:31.631Z,23.35
2019-06-26T16:28:05.272Z,14.03
2019-06-26T16:30:27.547Z,14.20
2019-06-26T16:32:56.991Z,17.85
2019-06-26T16:35:24.348Z,14.15
2019-06-26T16:37:51.268Z,8.68
2019-06-26T16:40:18.267Z,23.67
2019-06-26T16:42:45.545Z,9.15
2019-06-26T16:45:12.825Z,18.67
2019-06-26T16:47:39.750Z,15.03
2019-06-26T16:50:07.709Z,13.28
2019-06-26T16:52:48.706Z,17.27
2019-06-26T16:55:06.974Z,14.63
2019-06-26T16:57:33.985Z,11.95
2019-06-26T17:00:09.413Z,15.55
2019-06-26T17:02:30.108Z,14.33
2019-06-26T17:04:56.952Z,12.90
2019-06-26T17:07:23.949Z,16.02
2019-06-26T17:09:51.104Z,10.72
2019-06-26T17:12:17.954Z,22.32
2019-06-26T17:14:45.536Z,16.40
2019-06-26T17:17:12.407Z,17.52
2019-06-26T17:19:39.623Z,14.85
2019-06-26T17:22:06.545Z,17.12
2019-06-26T17:24:34.612Z,25.77
2019-06-26T17:27:01.461Z,42.17
2019-06-26T17:29:28.301Z,22.17
2019-06-26T17:31:55.586Z,15.30
2019-06-26T17:34:22.417Z,14.10
2019-06-26T17:36:49.261Z,15.48
2019-06-26T17:39:16.254Z,10.00
2019-06-26T17:41:44.137Z,18.17
2019-06-26T17:44:11.216Z,19.87
2019-06-26T17:46:38.257Z,14.95
2019-06-26T17:49:05.407Z,18.87
2019-06-26T17:51:32.262Z,13.35
2019-06-26T17:53:59.402Z,21.45
2019-06-26T17:56:26.270Z,20.77
2019-06-26T17:58:53.102Z,17.40
2019-06-26T18:01:20.184Z,11.10
2019-06-26T18:03:47.040Z,14.30
2019-06-26T18:06:13.870Z,15.25
2019-06-26T18:08:41.232Z,18.25
2019-06-26T18:11:08.544Z,13.25
2019-06-26T18:13:36.519Z,12.85
2019-06-26T18:16:03.477Z,11.05
2019-06-26T18:18:30.819Z,11.12
2019-06-26T18:20:58.165Z,18.57
2019-06-26T18:23:37.098Z,13.72
2019-06-26T18:26:02.824Z,11.90
2019-06-26T18:28:22.852Z,18.20
2019-06-26T18:30:50.114Z,17.02
2019-06-26T18:33:16.997Z,15.75
2019-06-26T18:35:43.869Z,17.67
2019-06-26T18:38:11.231Z,17.27
2019-06-26T18:40:38.871Z,12.82
2019-06-26T18:43:06.328Z,11.30
2019-06-26T18:45:33.179Z,14.28
2019-06-26T18:48:01.627Z,17.40
2019-06-26T18:50:28.509Z,12.43
2019-06-26T18:52:55.709Z,18.52
2019-06-26T18:55:22.566Z,10.03
2019-06-26T18:57:49.643Z,15.05
2019-06-26T19:00:17.814Z,16.40
2019-06-26T19:02:44.889Z,16.48
2019-06-26T19:05:12.732Z,11.85
2019-06-26T19:07:39.948Z,17.70
2019-06-26T19:10:07.768Z,17.00
2019-06-26T19:12:37.473Z,15.93
2019-06-26T19:15:06.996Z,12.07
2019-06-26T19:17:34.288Z,13.30
2019-06-26T19:20:01.714Z,10.75
2019-06-26T19:22:28.879Z,16.07
2019-06-26T19:24:55.924Z,10.32
2019-06-26T19:27:23.138Z,10.48
2019-06-26T19:29:50.093Z,12.82
2019-06-26T19:32:17.343Z,16.50
2019-06-26T19:34:44.242Z,12.00
2019-06-26T19:37:11.289Z,12.70
2019-06-26T19:39:38.424Z,18.82
2019-06-26T19:42:05.260Z,27.25
2019-06-26T19:44:33.594Z,19.17
2019-06-26T19:47:00.504Z,19.23
2019-06-26T19:49:27.399Z,12.45
2019-06-26T19:51:54.264Z,20.02
2019-06-26T19:54:27.595Z,10.65
2019-06-26T19:56:50.229Z,15.00
2019-06-26T19:59:18.358Z,14.83
2019-06-26T20:01:45.216Z,24.57
2019-06-26T20:04:12.317Z,14.85
2019-06-26T20:06:39.192Z,13.62
2019-06-26T20:09:06.761Z,22.20
2019-06-26T20:11:33.903Z,19.95
2019-06-26T20:14:01.171Z,9.43
2019-06-26T20:16:28.039Z,11.70
2019-06-26T20:18:54.945Z,18.67
2019-06-26T20:21:22.156Z,24.05
2019-06-26T20:23:49.021Z,15.38
2019-06-26T20:26:16.288Z,21.12
2019-06-26T20:28:43.616Z,12.33
2019-06-26T20:31:10.442Z,11.97
2019-06-26T20:33:37.725Z,22.42
2019-06-26T20:36:05.044Z,17.67
2019-06-26T20:38:32.629Z,20.12
2019-06-26T20:40:59.486Z,22.85
2019-06-26T20:43:26.648Z,20.60
2019-06-26T20:45:53.888Z,15.58
2019-06-26T20:48:20.727Z,24.10
2019-06-26T20:50:47.893Z,15.85
2019-06-26T20:53:14.742Z,17.80
2019-06-26T20:55:41.696Z,11.33
2019-06-26T20:58:08.864Z,19.02
2019-06-26T21:00:35.701Z,29.65
2019-06-26T21:03:02.705Z,14.28
2019-06-26T21:05:29.638Z,20.02
2019-06-26T21:07:56.485Z,23.10
2019-06-26T21:10:23.315Z,13.68
2019-06-26T21:12:50.210Z,21.42
2019-06-26T21:15:18.545Z,22.22
2019-06-26T21:17:45.412Z,15.30
2019-06-26T21:20:13.559Z,20.23
2019-06-26T21:22:40.379Z,22.10
2019-06-26T21:25:18.129Z,22.48
2019-06-26T21:27:37.122Z,21.87
2019-06-26T21:30:07.082Z,19.48
2019-06-26T21:32:34.830Z,23.35
2019-06-26T21:35:02.476Z,32.03
2019-06-26T21:37:29.611Z,34.00
2019-06-26T21:39:56.482Z,19.12
2019-06-26T21:42:23.632Z,20.17
2019-06-26T21:44:50.486Z,22.67
2019-06-26T21:47:17.560Z,20.27
2019-06-26T21:49:44.523Z,27.65
2019-06-26T21:52:11.356Z,28.87
2019-06-26T21:54:38.590Z,21.42
2019-06-26T21:57:09.170Z,22.22
2019-06-26T21:59:36.048Z,25.77
2019-06-26T22:02:03.751Z,30.65
2019-06-26T22:04:30.919Z,21.35
2019-06-26T22:06:58.227Z,23.22
2019-06-26T22:09:25.191Z,23.02
2019-06-26T22:11:52.461Z,37.67
2019-06-26T22:14:19.311Z,23.25
2019-06-26T22:16:46.184Z,29.85
2019-06-26T22:19:13.450Z,30.52
2019-06-26T22:21:40.291Z,39.40
2019-06-26T22:24:07.384Z,42.83
2019-06-26T22:26:35.695Z,28.57
2019-06-26T22:29:02.871Z,31.48
2019-06-26T22:31:29.702Z,27.82
2019-06-26T22:33:56.643Z,28.98
2019-06-26T22:36:23.796Z,34.18
2019-06-26T22:38:50.624Z,22.67
2019-06-26T22:41:17.761Z,27.55
2019-06-26T22:43:44.841Z,28.62
2019-06-26T22:46:11.673Z,21.40
2019-06-26T22:48:38.982Z,20.75
2019-06-26T22:51:05.823Z,24.55
2019-06-26T22:53:34.224Z,29.98
2019-06-26T22:56:07.657Z,25.30
2019-06-26T22:58:30.566Z,30.77
2019-06-26T23:00:57.427Z,40.45
2019-06-26T23:03:24.491Z,32.78
2019-06-26T23:05:51.370Z,37.98
2019-06-26T23:08:18.373Z,29.42
2019-06-26T23:10:45.229Z,28.00
2019-06-26T23:13:12.086Z,30.12
2019-06-26T23:15:39.312Z,21.90
2019-06-26T23:18:06.218Z,28.92
2019-06-26T23:20:34.110Z,25.32
2019-06-26T23:23:01.036Z,33.30
2019-06-26T23:25:28.296Z,34.00
2019-06-26T23:27:55.120Z,40.73
2019-06-26T23:30:22.366Z,27.93
2019-06-26T23:32:49.239Z,38.30
2019-06-26T23:35:16.384Z,28.10
2019-06-26T23:37:43.249Z,30.45
2019-06-26T23:40:10.658Z,34.98
2019-06-26T23:42:37.492Z,27.58
2019-06-26T23:45:07.775Z,26.27
2019-06-26T23:47:34.841Z,36.48
2019-06-26T23:50:02.390Z,29.12
2019-06-26T23:52:29.543Z,40.43
2019-06-26T23:54:56.414Z,22.20
2019-06-26T23:57:23.615Z,23.98
2019-06-26T23:59:50.445Z,27.45
